PreDB.eu

music predb - trance, techno, house, hardstyle, hardcore
updated: 2024-04-04 18:40:15
JAN 46 GB 1008 R FEB 58 GB 1196 R
2024-03-21 11:06:46 Techno 11 460 Under_Black_Helmet-Cyberdreams-RAWV2-24BIT-WEB-FLAC-2024-WAVED
2024-03-21 11:01:34 Techno 6 24 DJ_Almighty-Resistance-(DMR276)-WEB-2024-AFO
2024-03-21 10:54:11 Techno 8 166 Flug-Where_The_Tunnel_Ends-ODDEVEN044-16BIT-WEB-FLAC-2024-WAVED
2024-03-21 10:53:19 Techno 6 89 Giacomo_Renzi-Dark_Black-(OFF307)-16BIT-WEB-FLAC-2024-AFO
2024-03-21 10:52:29 Techno 6 100 V.M._Gunn-Apollos_Oracle-(MIOLI107)-16BIT-WEB-FLAC-2024-AFO
2024-03-21 10:48:54 Techno 8 61 Flug-Where_The_Tunnel_Ends-(ODDEVEN044)-WEB-2024-BABAS
2024-03-21 10:46:26 Techno 8 52 Mike_Schommer-Rulers_Of_This_World-(LPY15)-WEB-2024-BABAS
2024-03-21 10:46:05 Techno 6 30 Giacomo_Renzi-Dark_Black-(OFF307)-WEB-2024-AFO
2024-03-21 10:45:14 Techno 9 324 23.4-Astral_Mechanism_EP-VIRGO024D-24BIT-WEB-FLAC-2024-WAVED
2024-03-21 10:44:53 Techno 5 43 LEVT-Optimus_Tyson-(ALAU214)-SINGLE-16BIT-WEB-FLAC-2024-AFO
2024-03-21 10:44:35 Techno 6 74 Filippo_Peschi_and_AnDe_Trois-Turn_Around-(KKU099)-16BIT-WEB-FLAC-2024-AFO
2024-03-21 10:43:04 Techno 5 16 Greenwolve_x_Luis_M-Micron-(ALPAK103)-SINGLE-WEB-2024-AFO
2024-03-21 10:41:57 Techno 7 41 Flanko-Carmelita-(ALULA230)-WEB-2024-AFO
2024-03-21 10:39:37 Techno 12 300 DJ_Dextro-The_Ceremony_EP-(SUARA509)-16BIT-WEB-FLAC-2024-AFO
2024-03-21 10:38:49 Techno 8 61 Qwezall_And_Linear_System-Split_1.0-KRDSPL10-WEB-2024-WAV
2024-03-21 10:37:57 Techno 8 147 Qwezall_And_Linear_System-Split_1.0-KRDSPL10-16BIT-WEB-FLAC-2024-WAVED
2024-03-21 10:34:22 Techno 8 115 Vinicius_Honorio-Endless_Love-(FIGUREX40)-16BIT-WEB-FLAC-2024-AFO
2024-03-21 10:32:25 Techno 9 159 Dynamic_Forces-Tango_EP-PRRUKBLK102-16BIT-WEB-FLAC-2024-WAVED
2024-03-21 10:31:16 Techno 5 12 BRYCH_(BR)_and_Isaac_Blum-Dont_Lie-(BT444B)-SINGLE-WEB-2024-AFO
2024-03-21 10:30:22 Techno 7 57 Robert_Babicz-Kelch_11-(KELCH11)-WEB-2024-AFO
2024-03-21 10:26:57 Techno 8 138 Alexander_Johansson_And_Mattias_Fridell-Galopp-TRUNCATEDGTL32-16BIT-WEB-FLAC-2024-WAVED
2024-03-21 10:26:49 Techno 6 71 Lee_Coulson-Experiments-(VANALT73)-16BIT-WEB-FLAC-2024-AFO
2024-03-21 10:26:33 Techno 8 50 Vinicius_Honorio-Endless_Love-(FIGUREX40)-WEB-2024-AFO
2024-03-21 10:26:18 Techno 6 24 Lee_Coulson-Experiments-(VANALT73)-WEB-2024-AFO
2024-03-21 10:24:32 Techno 8 128 Dustin_Zahn-Temporary_Vandalism_EP-BP074-16BIT-WEB-FLAC-2024-WAVED
2024-03-21 10:23:24 Techno 8 52 Alexander_Johansson_And_Mattias_Fridell-Galopp-TRUNCATEDGTL32-WEB-2024-WAV
2024-03-21 10:23:23 Techno 6 26 Heerhorst_x_PETER_PAHN_x_SLIN_BOURGH_x_Fukkk_Offf-Take_the_Floor-(CHLORE048)-WEB-2024-AFO
2024-03-21 10:21:11 Techno 6 24 Deniz_Bul-So_Sweet-(FS071)-WEB-2024-AFO
2024-03-21 10:20:31 Techno 12 97 DJ_Dextro-The_Ceremony_EP-(SUARA509)-WEB-2024-AFO
2024-03-21 10:20:30 Techno 6 26 Filippo_Peschi_and_AnDe_Trois-Turn_Around-(KKU099)-WEB-2024-AFO
2024-03-21 10:20:01 Techno 8 54 Regent-Aphid_Riot-(SRC006)-WEB-2024-BABAS
2024-03-21 10:19:37 Techno 8 139 Dawn_Razor_And_Confluence-Constrains-ARTSX044-16BIT-WEB-FLAC-2024-WAVED
2024-03-21 10:19:34 Techno 6 25 Glenn_Morrison_x_Frank_Sonic_x_Drumcomplex-Bedford_Avenue-(FFGR079)-WEB-2024-BABAS
2024-03-21 10:18:29 Techno 8 57 Kilowatt-The_Last_EP-(MC065)-WEB-2024-BABAS
2024-03-21 10:18:28 Techno 8 50 Vinicius_Honorio-Endless_Love-(FIGUREX40)-WEB-2024-BABAS
2024-03-21 10:18:27 Techno 9 58 Sigvard-Rift-(ANA113)-WEB-2024-BABAS
2024-03-21 10:18:23 Techno 8 51 Blame_the_Mono-Talkative_Tools-(INV046)-WEB-2024-BABAS
2024-03-21 10:18:08 Techno 7 30 Matt_Mus-Berber-(CODEX235)-WEB-2024-BABAS
2024-03-21 10:17:47 Techno 8 44 Jiho-Stingray-(DRSS825)-WEB-2024-BABAS
2024-03-21 10:16:36 Techno 8 238 Dave_Wincent-New_Weapons-(SOMA664D)-24BIT-WEB-FLAC-2024-AFO
2024-03-21 10:15:21 Techno 6 70 Drop-E-Cobalt_Remixed-EDITSELECT193D-16BIT-WEB-FLAC-2024-WAVED
2024-03-21 10:15:04 Techno 8 59 OTO-Tryptique_Part_3-(EPDM47)-WEB-2024-BABAS
2024-03-21 10:14:42 Techno 10 71 X707-Ogan_EP-(PSR133)-WEB-2024-BABAS
2024-03-21 10:14:36 Techno 12 125 FTRXPRS-Aware-(FXPR018)-WEB-2024-BABAS
2024-03-21 10:14:18 Techno 8 51 Lewi_Boome-Headlong_Into_Relief-(WSRLWBME1)-WEB-2024-BABAS
2024-03-21 10:14:17 Techno 6 25 Kevin_Call-Square_Wheel-(MUS069)-WEB-2024-BABAS
2024-03-21 10:14:08 Techno 7 34 Cam_Lasky-EXHALATION_Vol.3_The_Great_Silence-(KWO349)-WEB-2024-BABAS
2024-03-21 10:13:58 Techno 6 31 Uros_Ilic-Old_Normal_EP-(REDECLR224)-WEB-2024-BABAS
2024-03-21 10:13:23 Techno 7 43 Erik_Yahnkovf-Mundos_Ascendentes-(JET202)-WEB-2024-BABAS
2024-03-21 10:12:53 Techno 14 168 Domenic_Cappello-Basement_Philosophy-(AC012D)-WEB-2024-BABAS
2024-03-21 10:12:47 Techno 10 79 Jack_Fresia-La_Dub-(MOAR003)-WEB-2024-BABAS
2024-03-21 10:12:41 Techno 7 36 Leo_Dentler-Mystical_Rush-WEB-2024-BABAS
2024-03-21 10:12:07 Techno 7 38 Howiezi-I_Feel_Energy-(SR097)-WEB-2024-BABAS
2024-03-21 10:11:39 Techno 10 84 Conor_Krane-It_Melts_Off_My_Bones-(WHITEOWL003)-WEB-2024-BABAS
2024-03-21 10:11:21 Techno 14 131 VA-Gravitational_Forces-(ARVA02)-WEB-2024-BABAS
2024-03-21 10:11:09 Techno 10 82 Ikosaeder-Sonic_Odyssey-(SOLARD59)-WEB-2024-BABAS
2024-03-21 10:10:54 Techno 15 155 Alias_1-Shades_Of_Blue-(ALS02)-WEB-2024-BABAS
2024-03-21 10:10:27 Techno 9 209 Kmyle-Metamorphose_EP_Part_A_Eclosion-KML006A-16BIT-WEB-FLAC-2024-WAVED
2024-03-21 10:08:48 Techno 6 27 Drop-E-Cobalt_Remixed-EDITSELECT193D-WEB-2024-WAV
2024-03-21 10:08:22 Techno 9 62 23.4-Astral_Mechanism_EP-(VIRGO024D)-WEB-2024-BABAS
2024-03-21 10:07:36 Techno 8 46 Kamen-Kamen-(AE075)-WEB-2024-BABAS
2024-03-21 10:07:34 Techno 11 92 Singular_Anomalies-Here_And_Now_LP-(GRT020)-WEB-2024-BABAS
2024-03-21 10:06:13 Techno 7 42 Risa_Taniguchi-B-movie-(KP194)-WEB-2024-AFO
2024-03-21 10:04:19 Techno 8 49 Dustin_Zahn-Temporary_Vandalism_EP-(BP074)-WEB-2024-BABAS
2024-03-21 10:03:35 Techno 6 21 Ellen_Allien-Rave_Luv-(BPX036)-WEB-2024-BABAS
2024-03-21 10:03:12 Techno 8 49 Dawn_Razor_x_Confluence-Constrains-(ARTSX044)-WEB-2024-BABAS
2024-03-21 10:02:55 Techno 10 77 Frenk_Dublin-ECHO_LTD_005_LP-(ECHOLTD005D)-WEB-2024-BABAS
2024-03-21 10:02:51 Techno 9 41 Mark_Broom-Smoke_Machines_and_Strobe_Lights_EP-(BMD039)-WEB-2024-BABAS
2024-03-21 10:02:44 Techno 7 33 Forest_People-Malkuth-(TRAPEZ266)-WEB-2024-BABAS
2024-03-21 10:02:23 Techno 13 120 VA-Slam_Presents_Exhibit_3-(SOMA662D)-WEB-2024-BABAS
2024-03-21 07:13:13 Techno 4 75 Hertz-Technomix-PROMO_CD-2002-BPM
2024-03-21 04:23:39 Techno 20 200 VA_-_Beatport_Temparia_-_Techno_Allure_We_Aint_Like_Them_Edition_Chart-WEB-2024
2024-03-21 04:23:16 Techno 13 107 VA_-_Beatport_S-File_-_Beatport_March_Bangers_Chart-WEB-2024
2024-03-21 04:22:56 Techno 14 130 VA_-_Beatport_Man_Lamb_-_March_Chart-WEB-2024
2024-03-21 04:22:36 Techno 15 139 VA_-_Beatport_Horace_Dan_D._-_Horace_Dan_DS_For_March_Chart-WEB-2024
2024-03-21 04:22:17 Techno 22 251 VA_-_Beatport_Erik_Yahnkovf_-_Mundos_Ascendentes_Chart-WEB-2024
2024-03-21 04:21:46 Techno 21 174 VA_-_Beatport_David_Cueto_-_Play_Marzo_Chart-WEB-2024
2024-03-21 04:21:24 Techno 32 345 VA_-_Beatport_Ayako_Mori_-_Before_Spring_Chart-WEB-2024
2024-03-21 03:47:21 Techno 15 375 Trolley_Route_-_Exercise_Two-(OMD05)-WEB-FLAC-2009
2024-03-21 03:47:16 Techno 19 454 Octave_One_-_The_Theory_Of_Everything-(CEPTCD10)-CD-FLAC-2004
2024-03-21 03:46:56 Techno 8 120 VA_-_Inner_City_Blues_EP-(PRRUKWHT013)-WEB-FLAC-2024
2024-03-21 03:46:37 Techno 8 145 Endlec_-_Futur_Akustik-(RM9)-WEB-FLAC-2024
2024-03-21 03:46:14 Techno 8 186 Mattra_-_Forward-(TNDBLK023)-WEB-FLAC-2020
2024-03-21 03:46:06 Techno 14 222 Dark_Sky_-_Imagin-(MONKEYTOWN048)-WEB-FLAC-2014
2024-03-21 01:29:41 Techno 9 214 Aaron_Schwarz-Rare_Signs-(TMMLTD049)-16BIT-WEB-FLAC-2024-PTC
2024-03-21 01:28:15 Techno 9 77 Aaron_Schwarz-Rare_Signs-(TMMLTD049)-WEB-2024-PTC
2024-03-21 00:31:44 Techno 8 66 Laima_Adelaide-Convergence-(LSYA005)-WEB-2024-PTC
2024-03-21 00:18:53 Techno 5 16 Hiboo-Gypsy_Woman-(P4A050)-SINGLE-WEB-2024-PTC
2024-03-21 00:15:12 Techno 6 16 Dopelerz-Stay-(DZB658)-WEB-2024-PTC
2024-03-21 00:14:30 Techno 8 52 Dkult-Contigo-(SR16)-WEB-2024-PTC
2024-03-21 00:14:08 Techno 10 71 Das-The_Next_War-(EMRL020)-WEB-2024-PTC
2024-03-20 23:12:10 Techno 7 46 Cami_Marquez-Backroom-(STNR047)-WEB-2024-PTC
2024-03-20 23:11:22 Techno 5 13 Bvalioso-Runaway_To_Darkness-(MR071)-SINGLE-WEB-2024-PTC
2024-03-20 20:07:03 Techno 8 54 Hannd_x_Cosmic_G-Natural_Instincs-(39PACK01)-WEB-2024-BABAS
2024-03-20 20:06:40 Techno 6 25 Shawn_Cartier-Revival_Police-(SCD001)-WEB-2024-BABAS
2024-03-20 20:06:39 Techno 8 61 Sansibar-We_Rise-(SINS001)-WEB-2024-BABAS
2024-03-20 19:56:58 Techno 5 10 Zatox_-_Burnin_Up-SINGLE-WEB-2024-iDC
2024-03-20 19:17:41 Techno Josh_Wink_-_Profound_Sounds-SAT-03-19-2024-TALiON
2024-03-20 17:49:57 Techno 5 15 Killerbe4T-Meteor-(UIR0199)-SINGLE-WEB-2024-PTC
2024-03-20 17:49:18 Techno 7 43 Acidus-Oxymoron-RCKLSS016-WEB-2024-WAV
2024-03-20 17:13:42 Techno 29 348 VA-Underground_Raw_Techno_Vol._22-(LWURT22)-WEB-2024-COS
2024-03-20 17:13:24 Techno 7 61 VA-All_Acid_Everything_Vol_2-(MM009)-WEB-2024-BABAS
2024-03-20 17:10:33 Techno 8 50 92Groovz-Ridge_Rider-(92GVRZ007)-WEB-2024-BABAS
2024-03-20 17:10:26 Techno 12 120 VA-Various_Artists_Vol_3-(VVA03)-WEB-2024-BABAS
2024-03-20 17:07:00 Techno 29 326 VA-Crosstrain_Trax_032-(HOTQCRTT032)-WEB-2024-COS
2024-03-20 16:50:26 Techno 7 51 Tetra_Hydro-Illusion-(ATK018)-WEB-2024-PTC
2024-03-20 15:47:52 Techno 5 5 Required_And_Storah_-_Do_You_Understand_(Edit)-SINGLE-WEB-2024-UTNG
2024-03-20 15:22:34 Techno 24 791 VA-Hexagonal_WMC_2024-(HXWMC1)-16BIT-WEB-FLAC-2024-AFO
2024-03-20 15:14:20 Techno 5 5 AudionoiZer_-_Rock_The_Party_(Edit)-SINGLE-WEB-2024-UTNG
2024-03-20 15:14:12 Techno 5 6 Verdict_And_KidEast_-_Nightmare_(Edit)-SINGLE-WEB-2024-UTNG
2024-03-20 15:09:22 Techno 5 6 Infliction_And_Unload_-_Explode_(Edit)-SINGLE-WEB-2024-UTNG
2024-03-20 15:09:21 Techno 5 8 Jesse_Jax_-_Evolved_(Edit)-SINGLE-WEB-2024-UTNG
2024-03-20 15:06:21 Techno 5 6 Cardination_And_D-Venn_-_Emotions_(Edit)-SINGLE-WEB-2024-UTNG
2024-03-20 14:59:02 Techno 5 5 MYST_-_Alive_(Edit)-SINGLE-WEB-2024-UTNG
2024-03-20 14:58:53 Techno 5 7 Rejecta_-_Lose_Control_(Edit)-SINGLE-WEB-2024-UTNG
2024-03-20 14:58:09 Techno 5 5 Bmberjck_-_Burn_(Edit)-SINGLE-WEB-2024-UTNG
2024-03-20 14:38:19 Techno 5 5 Phuture_Noize_And_B-Front_-_Stars_(Take_Me_Higher)-(BMS025)-SINGLE-WEB-2024-SRG
2024-03-20 10:39:29 Techno 8 51 2psyched-Intrinsic_EP-(CTR096)-WEB-2024-PTC
2024-03-20 10:36:42 Techno 6 28 David_Moleon-GMaster-(MOOPUPDIG140)-WEB-2024-PTC
2024-03-20 10:35:14 Techno 7 39 Manu_Kenton-Bon_Chance_EP-(CMR071)-WEB-2024-PTC
2024-03-20 10:34:54 Techno 7 47 Christian_Fischer-Pills_Against_Sadness-(DEFD20242)-WEB-2024-PTC
2024-03-20 10:33:24 Techno 6 105 Multiples_Aka_Speedy_J_and_Surgeon-Spirit-S51S1-16BIT-WEB-FLAC-2024-WAVED
2024-03-20 10:31:46 Techno 10 68 dxrvo-Homebody-(DRSS836)-WEB-2024-PTC
2024-03-20 10:31:01 Techno 6 35 Multiples_Aka_Speedy_J_And_Surgeon-Spirit-S51S1-WEB-2024-WAV
2024-03-20 10:15:41 Techno 6 24 Norberto_Lusso-Rea_Phase_EP-(ELEK494)-WEB-2024-PTC
2024-03-20 10:07:24 Techno 5 10 Chaco-Open_Your_Mind-(REP029)-SINGLE-WEB-2024-PTC
2024-03-20 10:07:11 Techno 24 297 VA-Hexagonal_WMC_2024-(HXWMC1)-WEB-2024-AFO
2024-03-20 04:25:28 Techno 26 287 VA_-_Beatport_Yver_-_Hello_2024_Chart-WEB-2024
2024-03-20 04:25:01 Techno 25 288 VA_-_Beatport_Young_Bad_Twinz_-_March_On_Chart-WEB-2024
2024-03-20 04:24:09 Techno 14 128 VA_-_Beatport_Federico_Rosa_-_March_Hitsss_Chart-WEB-2024
2024-03-20 04:23:47 Techno 29 348 VA_-_Beatport_Vilas_Monnappa_-_Electrication_Chart-WEB-2024
2024-03-20 04:23:15 Techno 14 151 VA_-_Beatport_Subject32_-_Valkyrie_Chart-WEB-2024
2024-03-20 04:22:31 Techno 30 305 VA_-_Beatport_Stuckeyrella_-_Who_Am_I_Chart-WEB-2024
2024-03-20 04:22:06 Techno 15 158 VA_-_Beatport_Hels.Yeah_-_Unbridled_Chart-WEB-2024
2024-03-20 04:21:44 Techno 34 355 VA_-_Beatport_Ellen_Allien_-_Label_Of_The_Month_Bpitch_Chart-WEB-2024
2024-03-20 03:41:38 Techno 13 469 Green_Velvet-Flash__Answering_Machine-CDS-FLAC-2000-WRS
2024-03-20 03:41:26 Techno 17 413 Rue_East-Indoor_Culture-(PP038)-CD-FLAC-2001-dL
2024-03-20 03:41:21 Techno 15 497 Octave_One-Burn_It_Down-CD-FLAC-2015-Mrflac
2024-03-20 03:41:15 Techno 10 245 VA_-_Hologram-(HXAGRM052)-WEB-FLAC-2024
2024-03-20 03:40:13 Techno 8 136 Fractious_-_Future_Past-(WK028)-WEB-FLAC-2024
2024-03-20 03:39:49 Techno 7 156 F.Tek_-_On_The_Table_EP-(TECHSTURB033)-WEB-FLAC-2014-VL
2024-03-20 03:39:44 Techno 9 114 Franco_Alesso_-_Bad_System-(AVK084)-WEB-FLAC-2021
2024-03-20 01:48:48 Techno 6 25 X_Club.-Azurea_Siamesis-(FP001)-WEB-2024-PTC
2024-03-20 01:48:00 Techno 6 27 Freiheit-Rave_Is_My_Life-(FRL085)-WEB-2024-PTC
2024-03-20 01:38:22 Techno 8 58 MirrorLake-Moa-(QNE007)-WEB-2024-PTC
2024-03-20 00:21:32 Techno 6 37 Cristian_Miguez-Disorder-(HR0023)-WEB-2024-PTC
2024-03-20 00:18:15 Techno 8 45 Fhase_87-Rate_Mod_EP-(UKR353)-WEB-2024-PTC
2024-03-19 17:20:55 Techno 5 8 Lister-Back_2_Berlin-SINGLE-WEB-2024-ALPMP3
2024-03-19 16:08:47 Techno 5 7 Synthsoldier_Ft._Christina_Rotondo_-_Reaching_Out_(Edit)-SINGLE-WEB-2024-UTNG
2024-03-19 14:20:33 Techno 6 16 Revizion_-_Carry_You-(NEXT161PRO)-WEB-2024-SRG
2024-03-19 12:21:35 Techno 10 213 Phasic_18-Genesis-CHR308-16BIT-WEB-FLAC-2024-WAVED
2024-03-19 12:13:14 Techno 8 53 Tripped-This_Does_Not_Contain_Rave_Stabs_EP-PH007-WEB-2024-WAV
2024-03-19 11:13:40 Techno 7 43 Tripped-Hugs_Are_Drugs_EP-GFR095-WEB-2024-WAV
2024-03-19 11:12:18 Techno 9 312 Paal-Echo_Park-FIDES019-24BIT-WEB-FLAC-2024-WAVED
2024-03-19 10:26:17 Techno 8 155 Sergio_Caceres-52-(KNT134)-16BIT-WEB-FLAC-2024-AFO
2024-03-19 10:26:09 Techno 5 42 Justin_Hahn-Lost_In_Love-(RBL540)-SINGLE-16BIT-WEB-FLAC-2024-AFO
2024-03-19 10:25:23 Techno 8 57 Rob_De_Large-A_Deadly_Vice-(PTR382)-WEB-2024-PTC
2024-03-19 10:24:46 Techno 6 27 Rich_Walker-Choose_Life_EP-(CH0017)-WEB-2024-PTC
2024-03-19 10:24:22 Techno 7 45 5_Pins-Confusion_EP-(TC105)-WEB-2024-PTC
2024-03-19 10:18:10 Techno 9 61 Paal-Echo_Park-(FIDES019)-WEB-2024-PTC
2024-03-19 10:17:37 Techno 7 40 Alienor-Varius-(LST876)-WEB-2024-PTC
2024-03-19 10:14:52 Techno 8 55 6SISS-Metric-(DRSS796A)-WEB-2024-PTC
2024-03-19 10:11:32 Techno 5 42 Justin_Hahn-Lost_In_Love-(RBL540)-SINGLE-16BIT-WEB-FLAC-2024-PTC
2024-03-19 10:11:27 Techno 6 23 Gene_Karz_and_Lesia_Karz-Opium_Bird-(CAUSE091)-WEB-2024-PTC
2024-03-19 10:03:45 Techno 8 52 Sergio_Caceres-52-(KNT134)-WEB-2024-AFO
2024-03-19 10:02:04 Techno 5 13 Justin_Hahn-Lost_In_Love-(RBL540)-SINGLE-WEB-2024-AFO
2024-03-19 04:26:17 Techno 24 252 VA_-_Traxsource_Manuel_De_La_Mare_-_Mezcal_Chart-WEB-2024
2024-03-19 04:25:53 Techno 15 134 VA_-_Beatport_Leonhardt_Marz_-_Unit_Null_45_Chart-WEB-2024
2024-03-19 04:25:30 Techno 15 151 VA_-_Beatport_Bizza_-_Labanna_March_Chart-WEB-2024
2024-03-19 04:25:07 Techno 14 134 VA_-_Beatport_Uto_Karem_-_Liquid_Night_Chart-WEB-2024
2024-03-19 04:24:45 Techno 14 128 VA_-_Beatport_Mene_-_Usuu_Chart-WEB-2024
2024-03-19 04:24:26 Techno 18 182 VA_-_Beatport_Marc_Noize_-_Raw_Driving_Hard_Techno_02_Chart-WEB-2024
2024-03-19 04:24:01 Techno 14 166 VA_-_Beatport_Hels.Yeah_-_Acid_Techno_Chart-WEB-2024
2024-03-19 04:23:40 Techno 24 271 VA_-_Beatport_Bedez_-_Resurgence_Chart-WEB-2024
2024-03-19 03:39:41 Techno 12 262 Rue_East-Summer_Of_Blood-(PP017CD)-CD-FLAC-1998-dL
2024-03-19 03:39:37 Techno 14 248 Heiko_Laux-Waves-(KA133CD)-CD-FLAC-2006-SPL
2024-03-19 03:39:30 Techno 8 161 Sagsag23_-_Old_Skull_09-(Old_Skull_09)-WEB-FLAC-2013
2024-03-19 03:39:24 Techno 9 125 Mad_Mike_-_Death_Star-(UR-022)-VINYL-FLAC-1992
2024-03-19 02:06:07 Techno 5 18 Audrey_Danza-Flora_Formulas-(FLORA01)-SINGLE-WEB-2024-PTC
2024-03-19 02:03:56 Techno 6 21 Gary_Bolton-Troy-(RR130)-WEB-2024-PTC
2024-03-19 01:57:13 Techno 8 38 The_Sixth_Sense-The_Woman_In_The_Red_Dress_EP-(COTD084)-WEB-2024-PTC
2024-03-19 01:12:04 Techno 8 56 Olivier_Francis-Cosmosound.Tech-(SH182)-WEB-2024-PTC
2024-03-19 00:55:42 Techno 6 37 DJ_Shufflemaster_and_Jon_Hester-Participation_004-(PARTICIPATION004)-WEB-2024-PTC
2024-03-19 00:20:03 Techno 7 51 Monobass-Humanoid-(WDM11)-WEB-2024-PTC
2024-03-19 00:19:33 Techno 6 30 MaKabre-Blurred_Reality-(DZB641)-WEB-2024-PTC
2024-03-19 00:17:53 Techno 10 52 Kush_Jones-Blockwerk-(KJ001)-WEB-2024-PTC
2024-03-19 00:17:04 Techno 6 32 Frank_van_Wissing-Planet_Discovery-(HPR093)-WEB-2024-PTC
2024-03-19 00:16:33 Techno 8 42 Antskate-Subject-(SOVRV165)-WEB-2024-PTC
2024-03-18 21:35:22 Techno 8 51 Phalcon-Aerial-SK11X024-WEB-2024-WAV
2024-03-18 21:35:03 Techno 8 156 Phalcon-Aerial-SK11X024-16BIT-WEB-FLAC-2024-WAVED
2024-03-18 18:44:32 Techno 10 76 VA-Inverno_(The_Four_Seasons_Series)-(CKK094)-WEB-2024-BABAS
2024-03-18 17:19:18 Techno 5 16 Samuel_Justinno-Out_of_Relity-(5063483116045)-SINGLE-WEB-2024-HeRTZ
2024-03-18 16:07:58 Techno 6 28 Niell-Lovecraft-(BET519)-WEB-2024-PTC
2024-03-18 15:53:15 Techno 8 46 Alexander_Kowalski_and_Ricardo_Garduno-Parallel_Thoughts_Four-(THGHTS011)-WEB-2024-PTC
2024-03-18 15:26:05 Techno 6 23 Arcad-Caos-(BLR028)-WEB-2024-PTC
2024-03-18 15:03:03 Techno 7 51 X6Cta-DarkRider-(TNZ368)-WEB-2024-PTC
2024-03-18 15:00:28 Techno 7 108 Techflex-Onslaught_EP-(NLD648)-16BIT-WEB-FLAC-2024-PTC
2024-03-18 14:56:38 Techno 8 50 Plateau_Sigma-Feed_It-(DD104)-WEB-2024-PTC
2024-03-18 13:10:30 Techno 7 167 Karla_Blum-Bonafide-(BLUM01)-16BIT-WEB-FLAC-2024-AFO
2024-03-18 12:02:49 Techno 10 79 Maloog-SHIKSHU_EP-(PRTL016)-WEB-2024-PTC
2024-03-18 11:52:36 Techno 10 166 Isabel_Soto-Underwater-(01366CAT6)-16BIT-WEB-FLAC-2024-PTC
2024-03-18 11:07:55 Techno 7 39 Techflex-Onslaught_EP-(NLD648)-WEB-2024-BABAS
2024-03-18 11:07:49 Techno 13 109 illocanblo-Reson8Tion-(DRSS794)-WEB-2024-BABAS
2024-03-18 10:23:49 Techno 6 30 Eme_Kulhnek-New_Horizons-(FCS001)-WEB-2024-PTC
2024-03-18 10:23:20 Techno 6 24 Artificial_Midi-Take_Me-(TAM279)-WEB-2024-PTC
2024-03-18 04:27:18 Techno 14 137 VA_-_Traxsource_Dennis_Quin_-_Miami_Music_Week_Top_10_Chart-WEB-2024
2024-03-18 04:26:59 Techno 19 214 VA_-_Beatport_Martin_Panizza_-_Goddess_Chart-WEB-2024
2024-03-18 04:26:38 Techno 14 122 VA_-_Beatport_Adrian_Oblanca_-_March_Chart-WEB-2024
2024-03-18 04:26:20 Techno 24 280 VA_-_Beatport_Techmo_-_Lights_Out_Alaula_Chart-WEB-2024
2024-03-18 04:25:55 Techno 14 140 VA_-_Beatport_Nonameleft_-_Cordyceps_Chart-WEB-2024
2024-03-18 04:25:31 Techno 14 135 VA_-_Beatport_Max_Mash_-_Hot_Chart-WEB-2024
2024-03-18 04:25:09 Techno 14 152 VA_-_Beatport_Kreisel_-_First_Simulation_Chart-WEB-2024
2024-03-18 04:24:45 Techno 14 131 VA_-_Beatport_Carlos_Pineda_-_Festa_Groovee_Chart-WEB-2024
2024-03-18 04:08:40 Techno 39 145 FLICKING_WORLD_-_Quantum_Rhythm_Nexus-WEB-2024-ZzZz
2024-03-18 03:48:47 Techno 31 119 FLICKING_WORLD_-_Holographic_Beatscape_Nexus-(5063483115413)-WEB-2024-ZzZz
2024-03-18 03:42:50 Techno 5 12 Aphex_IDM_-_Dark_Noise-(UC020)-SINGLE-WEB-2024-ZzZz
2024-03-18 03:41:20 Techno 5 11 Adigi_-_Serotonin_(2024_Remix)-(5063483112436)-SINGLE-WEB-2024-ZzZz
2024-03-18 03:40:16 Techno 16 447 Luke_Hess-Keep_On-(FXHE-LH1200)-CD-FLAC-2012-dL
2024-03-18 03:40:11 Techno 15 352 Heiko_Laux-Ornaments-(KA69CD)-CD-FLAC-2002-SPL
2024-03-18 03:39:35 Techno 7 126 Mot3K_-_Reaktor-(049)-WEB-FLAC-2020
2024-03-18 03:39:26 Techno 10 248 Klankman_-_World_Of_Phenomena_Ep-(MORD039)-WEB-FLAC-2017
2024-03-18 02:25:38 Techno 6 28 Luca_Morris-Ghiaccio-(MJATV004)-WEB-2024-PTC
2024-03-18 01:31:04 Techno 5 19 Mr_Coalman-Origins-(73M447)-SINGLE-WEB-2024-PTC
2024-03-18 00:29:29 Techno 5 14 VSAN-Panspermia-(GR0109)-SINGLE-WEB-2024-PTC
2024-03-18 00:28:37 Techno 21 216 VA-XRVA16-(XRVA16)-WEB-2024-PTC
2024-03-18 00:27:37 Techno 8 55 Sergio_Sotelo_Rey-Ants_Riot-(PALLR004)-WEB-2024-PTC
2024-03-18 00:27:24 Techno 7 35 R66-Origen-(DZB639)-WEB-2024-PTC
2024-03-18 00:27:10 Techno 8 52 PaulandDeep-Anomalies_EP-(LNN076)-WEB-2024-PTC
2024-03-18 00:27:05 Techno 8 58 Mike_Dehnert-One_EP-(SYNCRO45)-WEB-2024-PTC
2024-03-18 00:26:47 Techno 6 26 NDRS-Ndrs1-(BTR593)-WEB-2024-PTC
2024-03-18 00:26:07 Techno 7 34 Michel_Garret-Techno_Family_EP-(SVZ50)-WEB-2024-PTC
2024-03-18 00:25:45 Techno 7 33 Manuel_Di_Martino-Evoluzione_EP-(P41003)-WEB-2024-PTC
2024-03-18 00:25:21 Techno 7 51 F.Gazza_and_Juan_de_la_Higuera-Disomnia-(NSR127)-WEB-2024-PTC
2024-03-17 21:46:06 Techno 4 98 Reverze_2024-Mandy_Live-STREAM-03-02-2024-CiN_INT
2024-03-17 21:42:02 Techno 4 61 Reverze_2024-Dr_Peacock_Live-STREAM-03-02-2024-CiN_INT
2024-03-17 21:37:47 Techno DJ_Pat_B_B2B_Miss_Puss-Live_In_The_Mix_(Livestream)-STREAM-03-15-2024-CiN_INT
2024-03-17 20:49:31 Techno Dave_Clarke-White_Noise_950-STREAM-03-14-2024-CiN_INT
2024-03-17 18:47:34 Techno 5 6 Spitfire-Lucifer-SINGLE-WEB-2024-ALPMP3
2024-03-17 18:46:23 Techno 6 15 Clockartz-Bonecrusher-WEB-2024-ALPMP3
2024-03-17 18:09:44 Techno 5 7 Sylenth_-_Mind_Gates_(Edit)-SINGLE-WEB-2024-UTNG
2024-03-17 18:09:25 Techno 5 5 The_Purge_X_DJ_Yeyo_-_VAMONOS_(Edit)-SINGLE-WEB-2024-UTNG
2024-03-17 18:09:21 Techno 5 7 Sparkz_Ft._MC_Barricade_-_Break_The_Silence_(Official_Classified_Anthem)_(Edit)-SINGLE-WEB-2024-UTNG
2024-03-17 18:09:21 Techno 5 7 ZELECTER_-_Learn_From_The_Oldschool_(Edit)-SINGLE-WEB-2024-UTNG
2024-03-17 18:09:20 Techno 5 8 TRIIIPL3_INC._Ft._Lin_was_here_-_In_Command_(Edit)-SINGLE-WEB-2024-UTNG
2024-03-17 18:08:48 Techno 5 7 Sub_Sonik_And_Bass_X_Machina_Ft._Alpha_-_No_Surrender_(Edit)-SINGLE-WEB-2024-UTNG
2024-03-17 18:08:37 Techno 5 7 Nebiri_And_Tommy_Random_-_U_Got_Me_Tripping_(Edit)-SINGLE-WEB-2024-UTNG
2024-03-17 18:08:35 Techno 5 7 Ran-D_And_Hard_Driver_-_Animals_(Cryex_Remix)_(Edit)-SINGLE-WEB-2024-UTNG
2024-03-17 18:08:34 Techno 5 6 REKALL_-_For_You_(Edit)-SINGLE-WEB-2024-UTNG
2024-03-17 18:08:33 Techno 5 9 Promo_-_Up_Yours_(Psyko_Punkz_Remix)_(Edit)-SINGLE-WEB-2024-UTNG
2024-03-17 18:07:33 Techno 5 5 Luca_Testa_And_Tbr_-_Islands_In_The_Sky_(Edit)-SINGLE-WEB-2024-UTNG
2024-03-17 18:07:00 Techno 5 5 JNXD_X_Tellem_-_Guestlist_(Edit)-SINGLE-WEB-2024-UTNG
2024-03-17 18:06:35 Techno 5 5 Joka_-_Drop_The_Drums_(Edit)-SINGLE-WEB-2024-UTNG
2024-03-17 18:06:19 Techno 5 4 Fraw_And_Kruelty_-_MONSTER_(Edit)-SINGLE-WEB-2024-UTNG
2024-03-17 18:05:01 Techno 5 7 Broken_Element_-_The_Unknown_(Edit)-SINGLE-WEB-2024-UTNG
2024-03-17 17:11:33 Techno 10 80 Skudge_x_543ff-LRC003-(LRC003)-WEB-2024-BABAS
2024-03-17 16:56:27 Techno 8 66 VA-From_The_Lab_Volume_I-(MRD005)-WEB-2024-BABAS
2024-03-17 14:40:36 Techno 6 20 GON_And_Ellesdee_-_Reality-(CM073)-WEB-2024-SRG
2024-03-17 12:36:52 Techno 8 293 VA-Hzd_Records_09-(HZD09)-24BIT-WEB-FLAC-2024-CT
2024-03-17 12:24:52 Techno 29 340 VA-Workout_Warriors_007-(HOTQWW007)-WEB-2024-COS
2024-03-17 12:20:01 Techno 29 356 VA-High_Energy_Hits_007-(HOTQHEH007)-WEB-2024-COS
2024-03-17 11:51:50 Techno Joris_Voorn-Spectrum_Radio_360-SAT-17-03-2024-1KING
2024-03-17 10:45:39 Techno 9 70 VA-F-35_EP-(ATK162)-WEB-2024-PTC
2024-03-17 10:44:37 Techno 6 26 Tech_Us_Out_and_Woeste-Raw_Dawg_Control-(LST875)-WEB-2024-PTC
2024-03-17 10:43:47 Techno 8 63 Spectral_Resonator-Frecuencia_Hipnotica_EP-(GP153)-WEB-2024-PTC
2024-03-17 10:43:24 Techno 10 84 Deep_Secrets_-_Step_by_Step-(ABR39)-WEB-2024-ZzZz
2024-03-17 10:39:25 Techno 5 14 Robbe_-_COMPLEX_VARIATIONS-(TMORNVS034)-SINGLE-WEB-2024-ZzZz
2024-03-17 10:38:09 Techno 9 67 DEMONIC_LIVE_-_Never_Give_Up-(WWR317)-WEB-2024-ZzZz
2024-03-17 10:37:22 Techno 6 28 Lewis_K.-Robo_Conga-(LDN398)-WEB-2024-PTC
2024-03-17 10:35:06 Techno 6 34 Old_and_Kid_and_Jungels-Unfinished-(SOS461)-WEB-2024-PTC
2024-03-17 10:32:20 Techno 7 41 Notax-Drink_That_Shit-DRE553-WEB-2024-WAV
2024-03-17 10:32:05 Techno 6 29 Greg_Notill-My_Ashes-(CHLORE043)-WEB-2024-PTC
2024-03-17 10:30:24 Techno 7 41 Notax-Drink_That_Shit-(DRE553)-WEB-2024-PTC
2024-03-17 10:27:32 Techno 7 40 Paul_Render_and_AngelGround_(Col)-Dont_Go_Over_The_Top-(DZB659)-WEB-2024-PTC
2024-03-17 10:27:07 Techno 9 194 VA-Hypnotic_Arts_02-HDDNSRC002-16BIT-WEB-FLAC-2024-WAVED
2024-03-17 10:25:40 Techno 6 20 Modul8_-_On_The_Top-(ELL046)-WEB-2024-FMC
2024-03-17 10:25:29 Techno 8 60 PTTY-Heavy_Metals-(CUE055)-WEB-2024-PTC
2024-03-17 10:23:46 Techno 9 70 VA-Hypnotic_Arts_02-HDDNSRC002-WEB-2024-WAV
2024-03-17 10:20:27 Techno 7 109 MarekSPolzki-XY2_EP-CP151-16BIT-WEB-FLAC-2024-WAVED
2024-03-17 10:18:13 Techno 7 38 MarekSPolzki-XY2_EP-CP151-WEB-2024-WAV
2024-03-17 10:16:39 Techno 7 123 Gandara_(AR)-Cepheus-(OLDSQL717)-16BIT-WEB-FLAC-2024-AFO
2024-03-17 10:15:07 Techno 8 48 Bruno_Caro-Maximum_EP-R3UD061-WEB-2024-WAV
2024-03-17 10:15:02 Techno 8 134 Bruno_Caro-Maximum_EP-R3UD061-16BIT-WEB-FLAC-2024-WAVED
2024-03-17 10:10:04 Techno 10 223 Klausgreen-Porto_EP-(DVTR122)-16BIT-WEB-FLAC-2024-PTC
2024-03-17 10:07:19 Techno 6 74 Casual_Treatment_And_Fresko-Horizons_Four-IARLTDT011-16BIT-WEB-FLAC-2024-WAVED
2024-03-17 10:05:19 Techno 10 76 Klausgreen-Porto_EP-DVTR122-WEB-2024-WAV
2024-03-17 10:04:30 Techno 7 48 Gandara_(AR)-Cepheus-(OLDSQL717)-WEB-2024-AFO
2024-03-17 10:04:01 Techno 6 27 Casual_Treatment_And_Fresko-Horizons_Four-IARLTDT011-WEB-2024-WAV
2024-03-17 09:23:31 Techno 8 128 Arnaud_Le_Texier-Reversal-24H031-16BIT-WEB-FLAC-2024-WAVED
2024-03-17 08:54:54 Techno 14 101 Nic_Fastine_-_Magic_Stick-(HGS0175)-WEB-2024-ZzZz
2024-03-17 07:33:04 Techno 5 9 Anzel_Diaz_-_Heart-(5063483062908)-SINGLE-WEB-2024-ZzZz
2024-03-17 07:30:18 Techno 6 49 Alessio_Pili_-_DGT_is_Shit-(AC004LTD)-WEB-2024-ZzZz
2024-03-17 07:27:40 Techno 5 13 7AM_Project_-_This_Is_Acid-(HQR027)-SINGLE-WEB-2024-ZzZz
2024-03-17 07:19:16 Techno 7 95 Umek-No_Sleeping-16BIT-WEB-FLAC-2024-RAWBEATS
2024-03-17 06:22:11 Techno VA-Mexico_Top_100_Single_Charts_17.03.2024-AUDiAL_iNT
2024-03-17 06:06:41 Techno VA-Switzerland_Top_100_Single_Charts_17.03.2024-AUDiAL_iNT
2024-03-17 04:37:29 Techno 33 860 VA-Bonzai_Records_Israel_Vol_2_(Full_Length_Edition)-MWCD2011263-WEB-2011-JUSTiFY
2024-03-17 04:29:23 Techno 14 127 VA_-_Beatport_Juanito_-_February_Winter_Chart-WEB-2024
2024-03-17 04:29:04 Techno 14 121 VA_-_Beatport_Uncertain_-_Courage_Ep_Chart-WEB-2024
2024-03-17 04:28:44 Techno 14 135 VA_-_Beatport_Pagano_-_Archimedes_Beatport_Chart-WEB-2024
2024-03-17 04:28:25 Techno 14 155 VA_-_Beatport_Maite_Dedecker_-_STop_10_Chart-WEB-2024
2024-03-17 04:28:00 Techno 22 237 VA_-_Beatport_In_The_Remix_-_Hard_Techno-WEB-2024
2024-03-17 04:27:38 Techno 14 140 VA_-_Beatport_Cosmic_Boys_-_Reaction_Chart-WEB-2024
2024-03-17 04:27:14 Techno 16 170 VA_-_Beatport_Angel_Heredia_-_Fake_News_Chart-WEB-2024
2024-03-17 04:12:34 Techno Nicole_Moudaber-In_the_MOOD_516-SAT-03-17-2024-PTC
2024-03-17 03:40:51 Techno 15 267 Donato_Dozzy_and_Nuel-The_Aquaplano_Sessions-CD-FLAC-2014-BCC
2024-03-17 03:40:45 Techno 14 330 Heiko_Laux-Sensefiction-(KA39CD)-CD-FLAC-2000-SPL
2024-03-17 03:40:01 Techno 5 31 Nico_Moreno_and_Warface_-_2_Be_High-(IRR017)-WEB-FLAC-2024
2024-03-17 03:39:44 Techno 8 160 Gregor_Tresher-System_X_-_EP-(DC106)-WEB-FLAC-2013-CB
2024-03-17 03:39:35 Techno 9 158 Illuminatus_-_Acid_To_Acid-(DMD_23-024cd)-CD-FLAC-1995
2024-03-17 03:39:29 Techno 8 90 Samuel_L_Session_-_Technosoul_Pt._1-(CYCLE_001)-VINYL-FLAC-1997
2024-03-17 03:15:11 Techno Adam_Beyer-Drumcode_Live_711-SAT-03-17-2024-PTC
2024-03-17 02:26:59 Techno Secret_Cinema-Gem_FM_339-SAT-17-03-2024-1KING
2024-03-17 02:25:57 Techno Eelke_Kleijn-Days_Like_Nights_Radio_332-SAT-17-03-2024-1KING
2024-03-17 01:35:47 Techno 8 52 Rabo_and_Traumata-Abaish-(PSR182)-WEB-2024-PTC
2024-03-17 00:41:39 Techno 5 15 Stefano_TT-For_The_Love-(RESETLTD003)-SINGLE-WEB-2024-PTC
2024-03-17 00:41:22 Techno 8 43 Rotwang-Late_Reply-(XR280)-WEB-2024-PTC
2024-03-17 00:40:59 Techno 6 24 AngelGround_(Col)-Cuenta_Propia-(DZB646)-WEB-2024-PTC
2024-03-16 22:08:45 Techno Robin_Schulz-1LIVE_DJ_Session-SAT-16-03-2024-1KING
2024-03-16 22:01:52 Techno Ninsa-The_Boom_Room_501-SAT-16-03-2024-1KING
2024-03-16 21:54:06 Techno 5 11 DJ_Zealot_-_Ready_for_This-(SD218)-SINGLE-WEB-2024-ZzZz
2024-03-16 20:58:15 Techno Rose_Ringed-The_Boom_Room_501-SAT-16-03-2024-1KING
2024-03-16 20:47:13 Techno 12 123 VA_-_Predictions_III_(DSMDEEP004)-WEB-2024-TR
2024-03-16 20:45:28 Techno 10 76 Isabel_Soto_-_Underwater_EP_(01366CAT6)-WEB-2024-TR
2024-03-16 20:32:35 Techno 8 48 Marberg-Snake_EP-(ODO009)-WEB-2024-BABAS
2024-03-16 20:32:01 Techno 7 38 South_Lights-Poor_Seagull-(ATTITUDE006)-WEB-2024-BABAS
2024-03-16 20:30:08 Techno 9 70 VA-Obscure-(MSDLS002)-WEB-2024-BABAS
2024-03-16 20:29:18 Techno 8 33 Einka-Trip_To_Antarctica-(GMND087)-WEB-2024-BABAS
2024-03-16 20:26:28 Techno 19 136 F-Andre-Time_Management-WEB-2024-BABAS
2024-03-16 20:25:05 Techno 9 62 Tan_Tan-Push_It-(PEM07)-WEB-2024-BABAS
2024-03-16 20:23:55 Techno 7 36 Kiyoyuki_Kanno-Xpander_EP-(DTPT0020)-WEB-2024-BABAS
2024-03-16 19:41:42 Techno 14 132 VA-KT_VA-006-(KTVA006)-WEB-2024-BABAS
2024-03-16 10:53:42 Techno 6 31 Deckard_Walker-Spiral-(OUTCODE25)-SINGLE-WEB-2024-HeRTZ
2024-03-16 09:24:50 Techno 4 7 Zac_White-Satellites-SINGLE-WEB-2024-MARiBOR
2024-03-16 07:45:16 Techno 12 101 VA_-_Italian_Affairs_Vol_1-(OPMLTD002)-WEB-2023
2024-03-16 04:30:56 Techno 6 35 Alex_Di_Stefano-Metamorphosis-WEB-2013-WAV
2024-03-16 04:30:34 Techno 28 761 VA-Bonzai_Records_Israel_Vol_1_(Full_Length_Edition)-MWCD2011260-WEB-2011-JUSTiFY
2024-03-16 04:23:31 Techno 40 438 VA_-_Traxsource_Essential_Tech_2024-02-26-WEB-2024
2024-03-16 04:22:59 Techno 24 267 VA_-_Beatport_March_In_The_Remix_-_Techno_(R-D-H)-WEB-2024
2024-03-16 04:22:31 Techno 14 136 VA_-_Traxsource_Havoc_Lawn_-_Scrmbass_Chart-WEB-2024
2024-03-16 04:22:11 Techno 14 143 VA_-_Beatport_Teenage_Mutants_-_Dramatico_Chart-WEB-2024
2024-03-16 04:21:46 Techno 15 139 VA_-_Beatport_Red_Effects_-_27_Reestart_Chart-WEB-2024
2024-03-16 04:21:25 Techno 14 129 VA_-_Beatport_Jason_Xmoon_-_032_Chart-WEB-2024
2024-03-16 04:21:02 Techno 14 137 VA_-_Beatport_Igor_Zanga_-_Push_That_Chart-WEB-2024
2024-03-16 04:20:37 Techno 29 347 VA_-_Beatport_Audio_Kode_-_Dj_Ody_RocDo_U_Like_It_Chart-WEB-2024
2024-03-16 03:46:27 Techno 6 39 McKeown_and_Bassiray-Behaved-(ZOTD040)-WEB-2024-PTC
2024-03-16 03:41:48 Techno 13 148 Population_One_-_Unknown_Black_Shapes-(UT_004)-VINYL-FLAC-1994
2024-03-16 03:41:39 Techno 7 310 Population_One_-_Two_Sides_To_Every_Story-(M-026)-24BIT-VINYL-FLAC-1996
2024-03-16 03:40:10 Techno 8 142 Mesh_Convergence_-_My_Unwritten_Epiphanies-(FAUT058)-WEB-FLAC-2024
2024-03-16 03:39:49 Techno 8 136 Uvall_-_Against_Guidelines-(NGM019)-WEB-FLAC-2024
2024-03-16 03:39:27 Techno 5 165 Acidfloor_-_26.03.2011_Live__Scherer_8_Berlin-(Sauer034)-WEB-FLAC-2011
2024-03-16 03:39:22 Techno 9 259 VA_-_Darkness_and_Light-(KOTLX010)-WEB-FLAC-2012-VL
2024-03-16 03:39:17 Techno 8 132 Scooter-Weekend-CDM-FLAC-2003-WRE
2024-03-16 03:08:39 Techno 21 254 VA-Shadow_Wulf_Vol._4-(SW052)-WEB-2024-PTC
2024-03-16 03:06:53 Techno 5 11 Tolee-Syndrome-(CPT035)-SINGLE-WEB-2024-PTC
2024-03-16 02:49:35 Techno 8 142 Border_One-Strange_Attractor-(TOKEN123D)-16BIT-WEB-FLAC-2024-PTC
2024-03-16 02:41:09 Techno 16 191 VA-Various_Artist-(JAM106)-WEB-2024-PTC
2024-03-16 02:40:39 Techno 38 486 VA-FLASH_Back_16-(FLASH356)-WEB-2024-PTC
2024-03-16 01:52:21 Techno 7 39 STRISC.-STRXLTD012-(STRXLTD012)-WEB-2024-PTC
2024-03-16 01:52:05 Techno 14 161 Mogo-Iluminacion_and_Mr_Buchla-(TLR139)-WEB-2024-PTC
2024-03-16 01:50:46 Techno 5 13 Kater_Tobi-Itztlacoliuhqui-(SN021)-SINGLE-WEB-2024-PTC
2024-03-16 01:50:16 Techno 5 15 HYRA-Tibetian_Tender-(FURRIER97)-SINGLE-WEB-2024-PTC
2024-03-16 01:38:45 Techno 6 36 REAKTTOR-Crazy_Paranoid_EP-(DGM204)-WEB-2024-PTC
2024-03-16 01:38:21 Techno 8 27 Matthias_Springer-Tooltime_720-(DMTRL027)-WEB-2024-PTC
2024-03-16 01:38:20 Techno 5 11 Poisoner-Wild_Trip-(SVZ48)-SINGLE-WEB-2024-PTC
2024-03-16 01:38:01 Techno 5 12 Pappenheimer_and_Markus_Weigelt-Ion_Storm-(ABFAHRT024)-SINGLE-WEB-2024-PTC
2024-03-16 01:38:00 Techno 6 27 Lively_Racket-Red_Or_Blue_EP-(SBR067)-WEB-2024-PTC_INT
2024-03-16 01:37:19 Techno 6 36 Fuda-Long_Dark_Night-(DGM203)-WEB-2024-PTC
2024-03-16 01:16:09 Techno 6 25 Dennis_Bauer-More_Bass-(RWSTD127)-WEB-2024-PTC
2024-03-16 01:15:50 Techno 6 25 C_Razey-Im_Kinda_in_Love-(TAM278)-WEB-2024-PTC
2024-03-16 01:15:34 Techno 5 17 A.P.-Holographic-(RF069)-SINGLE-WEB-2024-PTC
2024-03-16 01:05:00 Techno 8 55 Veseli-Swords_EP-(RVSD085)-WEB-2024-PTC
2024-03-16 00:53:37 Techno 9 62 TETCHKO-Deep_Down-(DSRD702D)-WEB-2024-PTC
2024-03-16 00:53:35 Techno 6 31 Schroomp-Chanel_Gucci_Prada-(DSRD702S)-WEB-2024-PTC
2024-03-16 00:53:20 Techno 6 23 Solyd-Run_It_Back-(DSRD699)-WEB-2024-PTC
2024-03-16 00:53:18 Techno 5 13 David_Temessi-Madrenaline-(DSRD702M)-SINGLE-WEB-2024-PTC
2024-03-16 00:43:09 Techno 11 87 David_Moleon-Sigue_Tu_Sueno-(TMVNL02)-WEB-2024-PTC
2024-03-16 00:38:30 Techno 8 64 Myk_Derill-Jacking-(CREDO87)-WEB-2024-PTC
2024-03-16 00:37:58 Techno 5 15 Mateo-Asgard-(DFR360)-SINGLE-WEB-2024-PTC
2024-03-16 00:31:55 Techno 10 79 VA-RITUALO8-(OMEN041)-WEB-2024-PTC
2024-03-16 00:30:45 Techno 6 32 Stereoimagery-Dark_Eyes_Dark_Lips_EP-(TAR214)-WEB-2024-PTC
2024-03-16 00:30:23 Techno 8 69 Rafalski-Nothing_But-(LG265)-WEB-2024-PTC
2024-03-16 00:30:18 Techno 5 12 Paul_Render-Acid_Rain-(DZB674)-SINGLE-WEB-2024-PTC
2024-03-16 00:29:45 Techno 6 20 Mikael_Vilja-Morbid_Bid_EP-(WRD0099)-WEB-2024-PTC
2024-03-16 00:29:10 Techno 7 52 Assuc-BuscaPina-(CYB097)-WEB-2024-PTC
2024-03-16 00:28:46 Techno 8 45 Arnaud_Le_Texier-Reversal-(24H031)-WEB-2024-PTC
2024-03-15 20:25:01 Techno 9 59 Genex_-_Filthy_Manoeuvre_EP_(FR028)-WEB-2024-TR
2024-03-15 19:57:19 Techno 29 317 VA_-_Industrial_Techno_Beats_Vol_01-(LWIBTB01)-WEB-2024-ZzZz
2024-03-15 19:21:34 Techno 5 10 MCHL51-React-(4056813685077)-SINGLE-WEB-2024-HeRTZ
2024-03-15 19:20:19 Techno 6 28 MEELA_DJ-Magic_Music_(_Robin_Hirte_and_Con_Tacto_Remix_)-(TEP011)-SINGLE-WEB-2024-HeRTZ
2024-03-15 19:16:10 Techno 5 12 XOOX-22222-(XOOX002)-SINGLE-WEB-2024-HeRTZ
2024-03-15 18:46:40 Techno Amelie_Lens_-_EXHALE_101-SAT-03-14-2024-TALiON
2024-03-15 18:35:09 Techno Josh_Wink_-_Profound_Sounds-SAT-03-12-2024-TALiON
2024-03-15 18:32:37 Techno 24 281 VA_-_Beatport_March_Best_Of_Hype_-_Techno_(P-D)-WEB-2024
2024-03-15 18:31:17 Techno 37 446 VA_-_Beatport_Exclusives_Only_Week_11-WEB-2024
2024-03-15 18:30:42 Techno 19 217 VA_-_Traxsource_Chiccaleaf_-_Undergif_3_Chart-WEB-2024
2024-03-15 18:30:16 Techno 14 152 VA_-_Beatport_Tom_Baxter_-_Acid_March_Chart-WEB-2024
2024-03-15 18:29:56 Techno 14 148 VA_-_Beatport_Mattia_Saviolo_-_Valkyrie_Chart-WEB-2024
2024-03-15 18:29:34 Techno 24 250 VA_-_Beatport_Juliet_Fox_-_Velvet_Tears_Chart-WEB-2024
2024-03-15 18:29:08 Techno 14 143 VA_-_Beatport_Jeremie._-_Space_Blum_Chart-WEB-2024
2024-03-15 18:28:44 Techno 14 163 VA_-_Beatport_Emery_(Ch)_-_Feb_Favs_Chart-WEB-2024